Time;durP1;ratioP1;P1;durP2;ratioP2;P2;SDS_P1;SDS_P2;PMS_P1;PMS_P2;Temp;Humidity;BMP_temperature;BMP_pressure;BME280_temperature;BME280_humidity;BME280_pressure;Samples;Min_cycle;Max_cycle;Signal;HPM_P1;HPM_P2
2023/06/05 00:00:23;;;;;;;7.15;4.40;;;13.60;84.40;;;;;;2103448;28;20043;-76
2023/06/05 00:01:25;;;;;;;9.50;4.50;;;13.60;84.80;;;;;;2100893;28;20024;-76
2023/06/05 00:02:26;;;;;;;4.97;4.10;;;13.60;85.00;;;;;;2097654;28;20043;-77
2023/06/05 00:03:27;;;;;;;6.90;4.20;;;13.50;85.20;;;;;;2098415;28;20395;-76
2023/06/05 00:04:30;;;;;;;7.80;4.40;;;13.50;85.70;;;;;;2098222;28;20112;-75
2023/06/05 00:05:31;;;;;;;6.88;4.63;;;13.50;86.20;;;;;;2101803;28;20024;-76
2023/06/05 00:06:31;;;;;;;6.97;4.30;;;13.50;86.60;;;;;;2101131;28;20260;-76
2023/06/05 00:07:32;;;;;;;5.35;4.15;;;13.50;87.10;;;;;;2099323;28;20031;-76
2023/06/05 00:08:32;;;;;;;7.28;4.05;;;13.50;87.20;;;;;;2095042;28;20088;-75
2023/06/05 00:09:33;;;;;;;6.50;4.05;;;13.50;87.50;;;;;;2099300;28;20103;-74
2023/06/05 00:10:33;;;;;;;8.07;4.45;;;13.50;87.90;;;;;;2101628;28;20054;-74
2023/06/05 00:11:34;;;;;;;5.35;4.22;;;13.50;88.50;;;;;;2098426;28;20034;-74
2023/06/05 00:12:35;;;;;;;6.28;4.10;;;13.40;88.90;;;;;;2101908;28;20034;-76
2023/06/05 00:13:36;;;;;;;5.72;4.30;;;13.40;89.50;;;;;;2097046;28;20123;-75
2023/06/05 00:14:36;;;;;;;6.05;3.80;;;13.40;89.80;;;;;;2096771;28;20507;-75
2023/06/05 00:15:37;;;;;;;6.95;4.00;;;13.40;90.10;;;;;;2100525;28;20582;-75
2023/06/05 00:16:38;;;;;;;5.93;4.13;;;13.40;90.40;;;;;;2094149;28;20563;-74
2023/06/05 00:17:38;;;;;;;7.35;4.28;;;13.30;90.50;;;;;;2100114;28;20111;-75
2023/06/05 00:18:39;;;;;;;6.13;3.88;;;13.30;90.80;;;;;;2099871;28;20439;-75
2023/06/05 00:19:39;;;;;;;5.55;3.70;;;13.30;91.00;;;;;;2101044;28;20028;-75
2023/06/05 00:20:40;;;;;;;5.25;3.60;;;13.30;91.00;;;;;;2093976;28;20490;-76
2023/06/05 00:21:40;;;;;;;7.63;3.67;;;13.30;91.10;;;;;;2094132;28;20048;-75
2023/06/05 00:22:44;;;;;;;4.30;3.50;;;13.20;91.40;;;;;;2098623;28;20564;-76
2023/06/05 00:23:44;;;;;;;4.78;3.45;;;13.20;91.70;;;;;;2092822;28;20098;-75
2023/06/05 00:24:45;;;;;;;5.75;3.80;;;13.20;91.80;;;;;;2091866;28;20033;-76
2023/06/05 00:25:46;;;;;;;4.80;3.75;;;13.20;92.10;;;;;;2094616;28;20028;-76
2023/06/05 00:26:47;;;;;;;6.50;3.80;;;13.20;92.40;;;;;;2097675;28;20024;-75
2023/06/05 00:27:47;;;;;;;6.40;3.90;;;13.20;92.70;;;;;;2095912;28;20434;-75
2023/06/05 00:28:48;;;;;;;5.18;3.67;;;13.20;93.00;;;;;;2093964;28;20020;-75
2023/06/05 00:29:49;;;;;;;7.72;3.55;;;13.10;93.20;;;;;;2102903;28;20062;-75
2023/06/05 00:30:50;;;;;;;6.93;3.70;;;13.10;93.60;;;;;;2100830;28;20044;-75
2023/06/05 00:31:50;;;;;;;6.00;3.60;;;13.10;93.80;;;;;;2101136;28;20028;-75
2023/06/05 00:32:51;;;;;;;5.07;3.80;;;13.10;94.10;;;;;;2092608;28;20539;-74
2023/06/05 00:33:52;;;;;;;5.85;3.55;;;13.10;94.30;;;;;;2094845;28;20093;-75
2023/06/05 00:34:53;;;;;;;5.70;3.72;;;13.10;94.60;;;;;;2101901;28;20015;-75
2023/06/05 00:35:54;;;;;;;6.35;3.90;;;13.00;94.80;;;;;;2100930;28;20020;-75
2023/06/05 00:36:55;;;;;;;5.30;3.58;;;13.00;95.10;;;;;;2100798;28;20047;-75
2023/06/05 00:37:58;;;;;;;5.20;3.80;;;13.00;95.50;;;;;;2101547;28;20020;-76
2023/06/05 00:38:58;;;;;;;5.45;3.47;;;12.90;95.80;;;;;;2098299;28;20028;-76
2023/06/05 00:39:59;;;;;;;6.32;3.67;;;12.90;96.20;;;;;;2098228;28;20539;-76
2023/06/05 00:41:01;;;;;;;6.80;3.90;;;12.90;96.60;;;;;;2097746;28;20032;-76
2023/06/05 00:42:02;;;;;;;4.55;3.20;;;12.90;96.90;;;;;;2105139;28;20024;-76
2023/06/05 00:43:02;;;;;;;5.28;3.60;;;12.90;97.10;;;;;;2100868;28;20121;-76
2023/06/05 00:44:03;;;;;;;4.78;3.63;;;12.90;97.40;;;;;;2100164;28;20153;-76
2023/06/05 00:45:04;;;;;;;5.63;3.28;;;12.90;97.70;;;;;;2100276;28;20043;-75
2023/06/05 00:46:06;;;;;;;5.13;3.47;;;12.80;98.00;;;;;;2103127;28;20505;-75
2023/06/05 00:47:06;;;;;;;5.75;3.65;;;12.80;98.40;;;;;;2100147;28;20024;-75
2023/06/05 00:48:07;;;;;;;4.40;3.50;;;12.80;98.60;;;;;;2105641;28;20031;-75
2023/06/05 00:49:09;;;;;;;5.50;3.67;;;12.80;98.90;;;;;;2097807;28;20113;-75
2023/06/05 00:50:12;;;;;;;5.07;3.45;;;12.80;99.10;;;;;;2096371;28;20526;-75
2023/06/05 00:51:15;;;;;;;4.47;3.28;;;12.80;99.30;;;;;;2102031;28;20043;-75
2023/06/05 00:52:16;;;;;;;5.88;3.80;;;12.80;99.60;;;;;;2096161;28;20036;-75
2023/06/05 00:53:17;;;;;;;4.47;3.60;;;12.80;99.80;;;;;;2100990;28;20024;-75
2023/06/05 00:54:18;;;;;;;4.63;3.28;;;12.80;99.90;;;;;;2082531;28;20029;-75
2023/06/05 00:55:19;;;;;;;4.53;3.22;;;12.80;99.90;;;;;;2087083;28;20161;-75
2023/06/05 00:56:20;;;;;;;4.00;3.35;;;12.80;99.90;;;;;;2088941;28;20029;-76
2023/06/05 00:57:24;;;;;;;5.05;3.50;;;12.70;99.90;;;;;;2100573;28;20034;-76
2023/06/05 00:58:26;;;;;;;6.07;3.47;;;12.70;99.90;;;;;;2096642;28;20502;-76
2023/06/05 00:59:29;;;;;;;4.38;3.70;;;12.70;99.90;;;;;;2086116;28;20121;-76
2023/06/05 01:00:30;;;;;;;5.68;3.78;;;12.70;99.90;;;;;;2102598;28;20068;-77
2023/06/05 01:01:32;;;;;;;7.05;3.50;;;12.60;99.90;;;;;;2097233;28;20290;-76
2023/06/05 01:02:34;;;;;;;5.03;3.55;;;12.60;99.90;;;;;;2099500;28;20560;-76
2023/06/05 01:03:35;;;;;;;5.65;3.45;;;12.60;99.90;;;;;;2092463;28;20063;-76
2023/06/05 01:04:36;;;;;;;6.40;3.20;;;12.60;99.90;;;;;;2091341;28;20718;-75
2023/06/05 01:05:37;;;;;;;5.60;3.78;;;12.60;99.90;;;;;;2092068;28;20032;-75
2023/06/05 01:06:40;;;;;;;4.18;3.50;;;12.60;99.90;;;;;;2083868;28;20491;-75
2023/06/05 01:07:40;;;;;;;5.10;3.58;;;12.60;99.90;;;;;;2094862;28;20428;-75
2023/06/05 01:08:42;;;;;;;6.82;3.60;;;12.60;99.90;;;;;;2096891;28;20135;-74
2023/06/05 01:09:44;;;;;;;5.68;3.75;;;12.60;99.90;;;;;;2095201;28;20042;-76
2023/06/05 01:10:44;;;;;;;5.00;3.58;;;12.60;99.90;;;;;;2096620;28;20037;-75
2023/06/05 01:12:03;;;;;;;5.85;3.83;;;12.50;99.90;;;;;;2095251;28;20087;-76
2023/06/05 01:13:05;;;;;;;5.28;3.50;;;12.50;99.90;;;;;;2097090;28;20554;-75
2023/06/05 01:14:22;;;;;;;4.75;3.40;;;12.50;99.90;;;;;;2098853;28;20535;-77
2023/06/05 01:15:28;;;;;;;4.47;3.38;;;12.50;99.90;;;;;;2097957;28;20365;-76
2023/06/05 01:16:32;;;;;;;5.40;3.45;;;12.40;99.90;;;;;;2097197;28;20584;-76
2023/06/05 01:17:33;;;;;;;5.53;3.67;;;12.40;99.90;;;;;;2101830;28;20055;-77
2023/06/05 01:18:34;;;;;;;7.60;3.50;;;12.40;99.90;;;;;;2097346;28;20033;-75
2023/06/05 01:19:36;;;;;;;4.40;3.40;;;12.40;99.90;;;;;;2101769;28;20036;-76
2023/06/05 01:20:38;;;;;;;5.18;3.33;;;12.40;99.90;;;;;;2100645;28;20039;-76
2023/06/05 01:21:38;;;;;;;5.25;3.60;;;12.40;99.90;;;;;;2099536;28;20027;-76
2023/06/05 01:22:40;;;;;;;5.78;3.30;;;12.40;99.90;;;;;;2099217;28;20019;-77
2023/06/05 01:23:44;;;;;;;4.88;3.60;;;12.40;99.90;;;;;;2099392;28;20035;-76
2023/06/05 01:24:47;;;;;;;6.57;3.60;;;12.40;99.90;;;;;;2100314;28;20505;-76
2023/06/05 01:25:48;;;;;;;4.97;3.58;;;12.40;99.90;;;;;;2102154;28;20122;-75
2023/06/05 01:27:02;;;;;;;5.47;3.50;;;12.40;99.90;;;;;;2091577;28;20530;-76
2023/06/05 01:28:08;;;;;;;6.25;3.83;;;12.40;99.90;;;;;;2102004;28;20044;-75
2023/06/05 01:29:14;;;;;;;6.50;3.58;;;12.30;99.90;;;;;;2100424;28;20495;-75
2023/06/05 01:30:36;;;;;;;5.47;4.00;;;12.30;99.90;;;;;;2103443;28;20451;-75
2023/06/05 01:31:41;;;;;;;5.25;3.80;;;12.40;99.90;;;;;;2099885;28;20023;-76
2023/06/05 01:33:05;;;;;;;5.75;3.90;;;12.30;99.90;;;;;;2101108;28;20023;-76
2023/06/05 01:34:12;;;;;;;7.10;3.97;;;12.30;99.90;;;;;;2099295;28;20031;-75
2023/06/05 01:35:17;;;;;;;6.53;3.38;;;12.30;99.90;;;;;;2092212;28;20047;-76
2023/06/05 01:36:19;;;;;;;8.00;3.88;;;12.30;99.90;;;;;;2085624;28;20024;-76
2023/06/05 01:37:24;;;;;;;7.47;3.97;;;12.30;99.90;;;;;;2086955;28;20032;-76
2023/06/05 01:38:26;;;;;;;6.00;3.80;;;12.30;99.90;;;;;;2094874;28;20039;-75
2023/06/05 01:39:27;;;;;;;5.97;3.80;;;12.20;99.90;;;;;;2100856;28;20158;-75
2023/06/05 01:40:31;;;;;;;6.45;3.80;;;12.30;99.90;;;;;;2093925;28;20031;-75
2023/06/05 01:41:33;;;;;;;4.97;3.45;;;12.20;99.90;;;;;;2085901;28;20163;-75
2023/06/05 01:42:34;;;;;;;5.05;3.70;;;12.20;99.90;;;;;;2096809;28;20114;-76
2023/06/05 01:43:36;;;;;;;4.88;3.58;;;12.20;99.90;;;;;;2093730;28;20028;-76
2023/06/05 01:44:39;;;;;;;5.28;3.40;;;12.20;99.90;;;;;;2086055;28;20112;-76
2023/06/05 01:45:40;;;;;;;5.32;3.80;;;12.20;99.90;;;;;;2097474;28;20050;-74
2023/06/05 01:46:41;;;;;;;6.82;3.75;;;12.20;99.90;;;;;;2087160;28;20032;-74
2023/06/05 01:47:42;;;;;;;6.40;3.67;;;12.20;99.90;;;;;;2092628;28;20039;-76
2023/06/05 01:48:44;;;;;;;7.00;3.85;;;12.20;99.90;;;;;;2100300;28;20038;-76
2023/06/05 01:49:45;;;;;;;5.22;3.80;;;12.20;99.90;;;;;;2100574;28;20027;-76
2023/06/05 01:50:46;;;;;;;4.55;3.60;;;12.10;99.90;;;;;;2101043;28;20023;-76
2023/06/05 01:51:46;;;;;;;5.30;3.58;;;12.20;99.90;;;;;;2097749;28;20023;-76
2023/06/05 01:52:49;;;;;;;5.10;3.90;;;12.10;99.90;;;;;;2095792;28;20031;-75
2023/06/05 01:53:50;;;;;;;7.18;3.50;;;12.10;99.90;;;;;;2096816;28;20056;-75
2023/06/05 01:54:52;;;;;;;8.00;3.83;;;12.10;99.90;;;;;;2095855;28;20344;-75
2023/06/05 01:55:57;;;;;;;4.15;3.42;;;12.10;99.90;;;;;;2099866;28;20036;-75
2023/06/05 01:56:58;;;;;;;5.15;3.63;;;12.00;99.90;;;;;;2091981;28;20523;-75
2023/06/05 01:57:58;;;;;;;6.00;4.13;;;12.00;99.90;;;;;;2091553;28;20107;-76
2023/06/05 01:59:06;;;;;;;5.88;3.70;;;12.00;99.90;;;;;;2092809;28;20536;-77
2023/06/05 02:00:15;;;;;;;4.32;3.38;;;12.00;99.90;;;;;;2092008;28;20020;-77
2023/06/05 02:01:16;;;;;;;5.45;3.60;;;12.00;99.90;;;;;;2094671;28;20047;-74
2023/06/05 02:02:18;;;;;;;9.02;3.83;;;12.00;99.90;;;;;;2098640;28;20106;-76
2023/06/05 02:03:20;;;;;;;5.78;3.58;;;12.00;99.90;;;;;;2104283;28;20489;-76
2023/06/05 02:04:21;;;;;;;5.05;3.60;;;12.00;99.90;;;;;;2097686;28;20494;-74
2023/06/05 02:05:22;;;;;;;6.10;3.70;;;12.00;99.90;;;;;;2097521;28;20032;-75
2023/06/05 02:06:24;;;;;;;4.80;3.38;;;12.00;99.90;;;;;;2097051;28;20075;-76
2023/06/05 02:07:25;;;;;;;6.68;3.75;;;12.00;99.90;;;;;;2091052;28;20087;-76
2023/06/05 02:08:27;;;;;;;4.68;3.60;;;11.90;99.90;;;;;;2090089;28;20439;-75
2023/06/05 02:09:32;;;;;;;5.57;3.58;;;11.90;99.90;;;;;;2089392;28;20523;-74
2023/06/05 02:10:33;;;;;;;4.82;3.28;;;11.90;99.90;;;;;;2094776;28;20352;-76
2023/06/05 02:11:33;;;;;;;8.07;3.75;;;12.00;99.90;;;;;;2094578;28;20032;-75
2023/06/05 02:12:34;;;;;;;5.70;3.63;;;12.00;99.90;;;;;;2100560;28;20024;-75
2023/06/05 02:13:37;;;;;;;5.80;3.75;;;11.90;99.90;;;;;;2088280;28;20509;-75
2023/06/05 02:14:38;;;;;;;4.43;3.40;;;11.90;99.90;;;;;;2085261;28;20079;-75
2023/06/05 02:15:41;;;;;;;5.10;3.67;;;11.90;99.90;;;;;;2080396;28;20126;-75
2023/06/05 02:16:43;;;;;;;5.40;3.58;;;11.80;99.90;;;;;;2095196;28;20502;-75
2023/06/05 02:17:50;;;;;;;5.20;3.50;;;11.90;99.90;;;;;;2092660;28;20029;-75
2023/06/05 02:18:50;;;;;;;6.28;3.60;;;11.80;99.90;;;;;;2090105;28;20021;-76
2023/06/05 02:19:51;;;;;;;5.70;3.58;;;11.80;99.90;;;;;;2086845;28;20529;-76
2023/06/05 02:20:57;;;;;;;6.32;3.55;;;11.80;99.90;;;;;;2092791;28;20054;-76
2023/06/05 02:21:58;;;;;;;5.53;3.70;;;11.80;99.90;;;;;;2092401;28;20028;-76
2023/06/05 02:22:59;;;;;;;5.32;3.75;;;11.80;99.90;;;;;;2096196;28;20028;-76
2023/06/05 02:24:00;;;;;;;5.43;4.13;;;11.80;99.90;;;;;;2096624;28;20114;-76
2023/06/05 02:25:00;;;;;;;7.10;4.38;;;11.80;99.90;;;;;;2093079;28;20020;-76
2023/06/05 02:26:01;;;;;;;5.32;3.95;;;11.80;99.90;;;;;;2080863;28;20407;-76
2023/06/05 02:27:01;;;;;;;5.78;4.10;;;11.70;99.90;;;;;;2085389;28;20183;-75
2023/06/05 02:28:02;;;;;;;5.28;3.85;;;11.80;99.90;;;;;;2096084;28;20313;-76
2023/06/05 02:29:03;;;;;;;5.40;4.10;;;11.70;99.90;;;;;;2105082;28;20077;-75
2023/06/05 02:30:04;;;;;;;5.28;3.63;;;11.70;99.90;;;;;;2099848;28;20473;-75
2023/06/05 02:31:05;;;;;;;4.85;3.95;;;11.70;99.90;;;;;;2099355;28;20535;-75
2023/06/05 02:32:06;;;;;;;7.00;4.10;;;11.70;99.90;;;;;;2099509;28;20038;-75
2023/06/05 02:33:08;;;;;;;8.73;4.10;;;11.70;99.90;;;;;;2100733;28;20022;-75
2023/06/05 02:34:10;;;;;;;6.85;3.88;;;11.70;99.90;;;;;;2097449;28;20032;-75
2023/06/05 02:35:11;;;;;;;5.60;3.70;;;11.70;99.90;;;;;;2097331;28;20086;-75
2023/06/05 02:36:15;;;;;;;5.22;3.80;;;11.70;99.90;;;;;;2096818;28;20116;-74
2023/06/05 02:37:15;;;;;;;4.57;3.38;;;11.70;99.90;;;;;;2089176;28;20124;-75
2023/06/05 02:38:16;;;;;;;4.75;3.55;;;11.70;99.90;;;;;;2091793;28;20040;-77
2023/06/05 02:39:17;;;;;;;6.47;3.42;;;11.70;99.90;;;;;;2090905;28;20048;-77
2023/06/05 02:40:18;;;;;;;4.25;3.50;;;11.70;99.90;;;;;;2090217;28;20025;-76
2023/06/05 02:41:21;;;;;;;5.97;3.67;;;11.70;99.90;;;;;;2091232;28;20017;-75
2023/06/05 02:42:22;;;;;;;6.72;3.53;;;11.60;99.90;;;;;;2095721;28;20078;-75
2023/06/05 02:43:23;;;;;;;3.92;3.47;;;11.60;99.90;;;;;;2093375;28;20037;-75
2023/06/05 02:44:23;;;;;;;6.93;3.95;;;11.60;99.90;;;;;;2082927;28;20022;-75
2023/06/05 02:45:24;;;;;;;6.45;3.90;;;11.60;99.90;;;;;;2090258;28;20028;-75
2023/06/05 02:46:25;;;;;;;4.18;3.40;;;11.60;99.90;;;;;;2092653;28;20406;-75
2023/06/05 02:47:26;;;;;;;4.65;3.50;;;11.60;99.90;;;;;;2093223;28;20047;-75
2023/06/05 02:48:26;;;;;;;5.72;3.70;;;11.60;99.90;;;;;;2103331;28;20028;-75
2023/06/05 02:49:29;;;;;;;7.05;3.88;;;11.60;99.90;;;;;;2090226;28;20054;-74
2023/06/05 02:50:30;;;;;;;5.88;3.53;;;11.60;99.90;;;;;;2094467;28;20096;-74
2023/06/05 02:51:34;;;;;;;4.63;3.30;;;11.60;99.90;;;;;;2086255;28;20342;-75
2023/06/05 02:52:35;;;;;;;4.65;3.50;;;11.60;99.90;;;;;;2076624;28;20427;-75
2023/06/05 02:53:41;;;;;;;5.93;3.67;;;11.50;99.90;;;;;;2088385;28;20449;-74
2023/06/05 02:54:42;;;;;;;5.65;3.63;;;11.50;99.90;;;;;;2091605;28;20103;-74
2023/06/05 02:55:44;;;;;;;5.18;3.55;;;11.60;99.90;;;;;;2097484;28;20020;-75
2023/06/05 02:56:49;;;;;;;5.20;3.53;;;11.50;99.90;;;;;;2100725;28;20020;-75
2023/06/05 02:57:50;;;;;;;5.40;3.35;;;11.50;99.90;;;;;;2090728;28;20178;-75
2023/06/05 02:58:56;;;;;;;5.53;3.55;;;11.50;99.90;;;;;;2094798;28;20491;-76
2023/06/05 02:59:57;;;;;;;5.82;3.60;;;11.50;99.90;;;;;;2094190;28;20027;-75
2023/06/05 03:01:01;;;;;;;4.63;3.50;;;11.50;99.90;;;;;;2091370;28;20029;-75
2023/06/05 03:02:04;;;;;;;5.88;3.80;;;11.50;99.90;;;;;;2090162;28;20093;-75
2023/06/05 03:03:06;;;;;;;7.45;3.92;;;11.50;99.90;;;;;;2084858;28;20025;-75
2023/06/05 03:04:10;;;;;;;5.00;3.67;;;11.50;99.90;;;;;;2088714;28;20064;-75
2023/06/05 03:05:12;;;;;;;7.80;3.60;;;11.50;99.90;;;;;;2091896;28;20071;-75
2023/06/05 03:06:17;;;;;;;5.43;3.80;;;11.50;99.90;;;;;;2093846;28;20032;-75
2023/06/05 03:07:22;;;;;;;6.35;3.65;;;11.50;99.90;;;;;;2091284;28;20094;-74
2023/06/05 03:08:26;;;;;;;5.30;3.80;;;11.50;99.90;;;;;;2101190;28;20035;-75
2023/06/05 03:09:27;;;;;;;5.15;3.58;;;11.50;99.90;;;;;;2090415;28;20024;-75
2023/06/05 03:10:27;;;;;;;4.50;3.38;;;11.50;99.90;;;;;;2082342;28;20083;-75
2023/06/05 03:11:29;;;;;;;6.85;3.60;;;11.50;99.90;;;;;;2086356;28;20750;-74
2023/06/05 03:12:29;;;;;;;5.97;3.50;;;11.50;99.90;;;;;;2082667;28;20551;-75
2023/06/05 03:13:30;;;;;;;5.50;3.60;;;11.50;99.90;;;;;;2102983;28;20106;-74
2023/06/05 03:14:31;;;;;;;5.10;3.47;;;11.50;99.90;;;;;;2094063;28;20055;-74
2023/06/05 03:15:32;;;;;;;5.97;3.42;;;11.60;99.90;;;;;;2075687;28;20544;-75
2023/06/05 03:16:37;;;;;;;7.70;3.70;;;11.60;99.90;;;;;;2100835;28;20509;-74
2023/06/05 03:17:38;;;;;;;6.57;3.38;;;11.60;99.90;;;;;;2103982;28;20031;-75
2023/06/05 03:18:38;;;;;;;4.70;3.42;;;11.60;99.90;;;;;;2103717;28;20023;-76
2023/06/05 03:19:40;;;;;;;6.15;3.50;;;11.60;99.90;;;;;;2101200;28;20538;-75
2023/06/05 03:20:41;;;;;;;7.70;3.50;;;11.60;99.90;;;;;;2104726;28;20089;-75
2023/06/05 03:21:42;;;;;;;6.72;3.80;;;11.60;99.90;;;;;;2098438;28;20027;-75
2023/06/05 03:22:44;;;;;;;5.00;3.70;;;11.60;99.90;;;;;;2089843;28;20025;-75
2023/06/05 03:23:44;;;;;;;6.72;3.60;;;11.60;99.90;;;;;;2098708;28;20462;-75
2023/06/05 03:24:47;;;;;;;7.70;3.88;;;11.60;99.90;;;;;;2105756;28;20027;-75
2023/06/05 03:25:48;;;;;;;14.60;4.10;;;11.60;99.90;;;;;;2086491;28;20031;-76
2023/06/05 03:26:49;;;;;;;9.02;3.45;;;11.60;99.90;;;;;;2094376;28;20031;-75
2023/06/05 03:27:50;;;;;;;4.43;3.50;;;11.70;99.90;;;;;;2092284;28;20081;-76
2023/06/05 03:28:51;;;;;;;6.03;3.70;;;11.60;99.90;;;;;;2092188;28;20387;-75
2023/06/05 03:29:53;;;;;;;5.53;4.03;;;11.60;99.90;;;;;;2101778;28;20594;-76
2023/06/05 03:30:53;;;;;;;5.10;3.60;;;11.60;99.90;;;;;;2098561;27;20024;-76
2023/06/05 03:31:57;;;;;;;5.53;3.70;;;11.60;99.90;;;;;;2097713;28;20028;-76
2023/06/05 03:32:57;;;;;;;7.53;3.70;;;11.60;99.90;;;;;;2089486;28;20079;-75
2023/06/05 03:33:59;;;;;;;6.90;3.40;;;11.60;99.90;;;;;;2088474;28;20032;-75
2023/06/05 03:35:00;;;;;;;5.93;3.13;;;11.70;99.90;;;;;;2084854;28;20097;-76
2023/06/05 03:36:01;;;;;;;4.97;3.80;;;11.70;99.90;;;;;;2088340;28;20028;-75
2023/06/05 03:37:03;;;;;;;5.93;3.60;;;11.70;99.90;;;;;;2101124;28;20015;-75
2023/06/05 03:38:04;;;;;;;4.63;3.50;;;11.70;99.90;;;;;;2103405;28;20636;-76
2023/06/05 03:39:05;;;;;;;4.72;3.40;;;11.70;99.90;;;;;;2092660;28;20216;-76
2023/06/05 03:40:08;;;;;;;5.32;3.90;;;11.70;99.90;;;;;;2094375;28;20036;-76
2023/06/05 03:41:09;;;;;;;5.53;3.60;;;11.80;99.90;;;;;;2094772;28;20373;-76
2023/06/05 03:42:11;;;;;;;6.30;3.53;;;11.80;99.90;;;;;;2094274;28;20051;-75
2023/06/05 03:43:11;;;;;;;4.63;3.70;;;11.70;99.90;;;;;;2092615;28;20048;-76
2023/06/05 03:44:13;;;;;;;4.63;3.45;;;11.70;99.90;;;;;;2095679;28;20116;-76
2023/06/05 03:45:14;;;;;;;5.60;3.70;;;11.70;99.90;;;;;;2096769;28;20028;-76
2023/06/05 03:46:18;;;;;;;7.40;3.70;;;11.70;99.90;;;;;;2099423;28;20035;-75
2023/06/05 03:47:20;;;;;;;5.85;3.53;;;11.80;99.90;;;;;;2083149;28;20495;-76
2023/06/05 03:48:21;;;;;;;6.45;3.53;;;11.80;99.90;;;;;;2089273;28;20036;-77
2023/06/05 03:49:25;;;;;;;6.32;3.58;;;11.80;99.90;;;;;;2089675;28;20035;-77
2023/06/05 03:50:29;;;;;;;5.63;3.78;;;11.90;99.90;;;;;;2097784;28;20068;-77
2023/06/05 03:51:29;;;;;;;6.53;3.80;;;11.90;99.90;;;;;;2097567;28;20033;-77
2023/06/05 03:52:31;;;;;;;6.15;3.60;;;11.90;99.90;;;;;;2098069;28;20331;-76
2023/06/05 03:53:32;;;;;;;6.03;3.65;;;12.00;99.90;;;;;;2089928;28;20021;-76
2023/06/05 03:54:32;;;;;;;6.10;3.50;;;12.00;99.90;;;;;;2088999;28;20093;-77
2023/06/05 03:55:45;;;;;;;9.07;3.50;;;12.10;99.90;;;;;;2099291;28;20038;-76
2023/06/05 03:56:50;;;;;;;8.63;4.07;;;12.10;99.90;;;;;;2094839;28;20251;-76
2023/06/05 03:57:51;;;;;;;4.72;3.58;;;12.10;99.90;;;;;;2090605;28;20017;-77
2023/06/05 03:58:52;;;;;;;10.18;3.78;;;12.20;99.90;;;;;;2100741;28;20103;-75
2023/06/05 03:59:52;;;;;;;7.32;3.53;;;12.20;99.90;;;;;;2090471;28;20399;-76
2023/06/05 04:00:53;;;;;;;8.48;3.50;;;12.30;99.90;;;;;;2097024;28;20024;-76
2023/06/05 04:01:56;;;;;;;6.97;3.47;;;12.40;99.90;;;;;;2100367;28;20031;-75
2023/06/05 04:02:59;;;;;;;6.28;4.07;;;12.40;99.90;;;;;;2092120;28;20073;-76
2023/06/05 04:04:00;;;;;;;9.38;4.03;;;12.50;99.90;;;;;;2100103;28;20051;-76
2023/06/05 04:05:02;;;;;;;8.18;3.55;;;12.60;99.90;;;;;;2098215;28;20511;-77
2023/06/05 04:06:04;;;;;;;4.80;3.58;;;12.70;99.90;;;;;;2094031;28;20446;-77
2023/06/05 04:07:06;;;;;;;6.28;3.63;;;13.00;99.90;;;;;;2094096;28;20039;-76
2023/06/05 04:08:07;;;;;;;7.00;3.83;;;13.30;99.90;;;;;;2096821;28;20126;-76
2023/06/05 04:09:11;;;;;;;6.28;3.70;;;13.60;99.90;;;;;;2088765;28;20028;-76
2023/06/05 04:10:12;;;;;;;6.15;3.33;;;13.90;99.90;;;;;;2081444;28;20033;-76
2023/06/05 04:11:12;;;;;;;5.13;3.60;;;14.20;99.90;;;;;;2089658;28;20119;-77
2023/06/05 04:12:14;;;;;;;5.85;3.22;;;14.30;99.90;;;;;;2097195;28;20106;-76
2023/06/05 04:13:15;;;;;;;7.38;3.60;;;14.50;99.90;;;;;;2094371;28;20483;-75
2023/06/05 04:14:16;;;;;;;8.90;3.60;;;14.70;99.90;;;;;;2096965;28;20032;-75
2023/06/05 04:15:16;;;;;;;5.25;3.50;;;15.00;99.90;;;;;;2096172;28;20278;-76
2023/06/05 04:16:17;;;;;;;5.38;3.50;;;15.30;99.90;;;;;;2086409;28;20033;-76
2023/06/05 04:17:18;;;;;;;5.38;3.53;;;15.70;99.40;;;;;;2086638;28;20033;-76
2023/06/05 04:18:18;;;;;;;7.45;3.45;;;15.90;98.20;;;;;;2093533;28;20576;-76
2023/06/05 04:19:21;;;;;;;8.95;3.75;;;16.20;96.80;;;;;;2100288;28;20032;-76
2023/06/05 04:20:25;;;;;;;9.68;3.72;;;16.40;95.40;;;;;;2083900;28;20147;-76
2023/06/05 04:21:25;;;;;;;6.80;3.33;;;16.50;94.00;;;;;;2092255;28;20031;-76
2023/06/05 04:22:26;;;;;;;6.90;3.50;;;16.50;93.50;;;;;;2092535;28;20036;-75
2023/06/05 04:23:26;;;;;;;6.38;4.00;;;16.60;93.10;;;;;;2102022;28;20110;-77
2023/06/05 04:24:29;;;;;;;8.85;4.35;;;16.60;92.60;;;;;;2094302;28;20036;-75
2023/06/05 04:25:29;;;;;;;7.25;4.05;;;16.70;92.30;;;;;;2088021;28;20502;-76
2023/06/05 04:26:30;;;;;;;5.30;3.40;;;16.90;91.80;;;;;;2085817;28;20175;-76
2023/06/05 04:27:31;;;;;;;5.57;3.33;;;17.10;91.00;;;;;;2092629;28;20024;-75
2023/06/05 04:28:32;;;;;;;5.70;3.40;;;17.40;89.70;;;;;;2091802;28;20417;-75
2023/06/05 04:29:32;;;;;;;5.93;3.53;;;17.50;88.00;;;;;;2083703;28;20045;-76
2023/06/05 04:30:33;;;;;;;7.85;3.30;;;17.70;86.90;;;;;;2085590;28;20021;-75
2023/06/05 04:31:34;;;;;;;5.05;3.42;;;17.80;85.00;;;;;;2096509;28;20054;-75
2023/06/05 04:32:38;;;;;;;6.22;3.65;;;18.00;84.00;;;;;;2089170;28;20529;-75
2023/06/05 04:33:39;;;;;;;7.90;3.45;;;18.20;82.60;;;;;;2092120;28;20454;-76
2023/06/05 04:34:40;;;;;;;5.10;3.58;;;18.30;81.20;;;;;;2084761;28;20136;-75
2023/06/05 04:35:40;;;;;;;24.60;7.05;;;18.40;80.00;;;;;;2094587;28;20024;-75
2023/06/05 04:36:41;;;;;;;11.10;4.18;;;18.40;79.40;;;;;;2101675;28;20027;-75
2023/06/05 04:37:43;;;;;;;10.70;3.90;;;18.30;78.90;;;;;;2098237;28;20020;-76
2023/06/05 04:38:45;;;;;;;6.75;3.83;;;18.00;78.90;;;;;;2091856;28;20032;-76
2023/06/05 04:39:46;;;;;;;6.30;3.72;;;17.90;79.60;;;;;;2092030;28;20443;-76
2023/06/05 04:40:48;;;;;;;6.22;3.72;;;17.60;80.20;;;;;;2091142;28;20377;-75
2023/06/05 04:41:49;;;;;;;6.93;3.28;;;17.40;80.60;;;;;;2092344;28;20056;-75
2023/06/05 04:42:56;;;;;;;8.20;3.33;;;17.20;81.30;;;;;;2093837;28;20036;-74
2023/06/05 04:44:02;;;;;;;5.50;3.35;;;17.00;82.40;;;;;;2088393;28;20527;-81
2023/06/05 04:45:07;;;;;;;6.28;3.60;;;17.10;83.10;;;;;;2095984;28;20058;-72
2023/06/05 04:46:11;;;;;;;7.97;3.58;;;17.30;82.80;;;;;;2100038;28;20031;-73
2023/06/05 04:47:12;;;;;;;7.00;3.83;;;17.60;82.70;;;;;;2097297;28;20566;-74
2023/06/05 04:48:13;;;;;;;10.50;3.90;;;17.80;80.80;;;;;;2096994;28;20024;-73
2023/06/05 04:49:14;;;;;;;6.93;3.53;;;18.10;79.80;;;;;;2095251;28;20359;-74
2023/06/05 04:50:26;;;;;;;8.70;4.00;;;18.20;77.90;;;;;;2096381;28;20135;-75
2023/06/05 04:51:31;;;;;;;7.45;3.65;;;18.20;77.30;;;;;;2096655;28;20036;-82
2023/06/05 04:52:35;;;;;;;5.88;3.63;;;18.30;76.70;;;;;;2095477;28;20017;-70
2023/06/05 04:53:36;;;;;;;13.18;5.85;;;18.40;76.40;;;;;;2091000;28;20036;-69
2023/06/05 04:54:37;;;;;;;8.15;4.50;;;18.30;76.30;;;;;;2090968;28;20085;-70
2023/06/05 04:55:38;;;;;;;5.80;3.80;;;18.20;76.70;;;;;;2098100;28;20101;-70
2023/06/05 04:56:39;;;;;;;9.68;4.07;;;18.20;77.10;;;;;;2086711;28;20529;-70
2023/06/05 04:57:40;;;;;;;7.80;3.83;;;18.00;76.80;;;;;;2096017;28;20458;-71
2023/06/05 04:58:41;;;;;;;10.52;3.90;;;17.70;77.80;;;;;;2091376;28;20527;-71
2023/06/05 04:59:45;;;;;;;8.70;3.72;;;17.40;79.10;;;;;;2091494;28;20092;-71
2023/06/05 05:00:49;;;;;;;9.25;3.83;;;17.10;79.50;;;;;;2093247;28;20071;-71
2023/06/05 05:01:50;;;;;;;7.57;4.22;;;16.80;80.70;;;;;;2086396;28;20051;-72
2023/06/05 05:02:52;;;;;;;6.43;3.80;;;16.60;81.60;;;;;;2085980;28;20033;-71
2023/06/05 05:03:53;;;;;;;6.07;4.00;;;16.40;83.00;;;;;;2092508;28;20024;-71
2023/06/05 05:04:53;;;;;;;7.43;3.70;;;16.20;84.30;;;;;;2091396;28;20607;-70
2023/06/05 05:05:55;;;;;;;6.63;4.25;;;16.10;85.40;;;;;;2095245;28;20020;-70
2023/06/05 05:07:00;;;;;;;5.93;3.65;;;15.80;86.40;;;;;;2091898;28;20675;-70
2023/06/05 05:08:02;;;;;;;6.28;3.70;;;15.70;87.60;;;;;;2093488;28;20552;-70
2023/06/05 05:09:04;;;;;;;5.78;3.67;;;15.50;87.50;;;;;;2091392;28;20031;-70
2023/06/05 05:10:06;;;;;;;4.15;3.40;;;15.50;88.20;;;;;;2091631;28;20035;-70
2023/06/05 05:11:07;;;;;;;7.22;3.38;;;15.50;88.50;;;;;;2095330;28;20039;-70
2023/06/05 05:12:09;;;;;;;6.38;3.78;;;15.50;88.20;;;;;;2099921;28;20673;-70
2023/06/05 05:13:10;;;;;;;6.35;3.70;;;15.40;88.10;;;;;;2100705;28;20162;-73
2023/06/05 05:14:10;;;;;;;6.28;3.75;;;15.30;88.70;;;;;;2097255;28;20419;-70
2023/06/05 05:15:11;;;;;;;6.07;3.70;;;15.30;89.80;;;;;;2090641;28;20028;-70
2023/06/05 05:16:13;;;;;;;6.00;3.45;;;15.30;90.10;;;;;;2096375;28;20047;-71
2023/06/05 05:17:16;;;;;;;7.00;3.65;;;15.30;89.70;;;;;;2093917;28;20243;-71
2023/06/05 05:18:17;;;;;;;5.22;3.67;;;15.40;90.10;;;;;;2090850;28;20036;-70
2023/06/05 05:19:18;;;;;;;8.50;3.85;;;15.40;88.60;;;;;;2085773;28;20033;-70
2023/06/05 05:20:19;;;;;;;6.40;3.75;;;15.40;88.50;;;;;;2085871;28;20435;-71
2023/06/05 05:21:19;;;;;;;8.10;4.10;;;15.30;88.80;;;;;;2094137;28;20459;-69
2023/06/05 05:22:20;;;;;;;7.03;3.97;;;15.30;89.30;;;;;;2091960;28;20690;-70